LIPH

Details ICAO LIPH (TSF)
Name TREVISO
Region Italy
Timezone Europe/Rome (UTC+2.0)
Plans Departing 132
Arriving 141
Stats Elevation 59 ft / 18 m (AMSL)
Location 45.648499° 12.194136°
Runways 1
Magnetic Variation 3.203° E
Sunrise 2018-05-26 03:31:05 UTC / 2018-05-26 05:31:05 Local
Sunset 2018-05-26 18:48:19 UTC / 2018-05-26 20:48:19 Local
Advertisement - Login to hide

Runways

ID Width Length Bearing (true) Bearing (mag) Surface Threshold Offset Overrun Length
07 144 ft / 44 m 7,919 ft / 2,414 m 69.18° 65.98° Asphalt 254 ft / 77 m 975 ft / 297 m
25 144 ft / 44 m 7,919 ft / 2,414 m 249.20° 246.00° Asphalt 389 ft / 119 m 0 ft / 0 m

Approach Navaids

Runway Type Ident Frequency Range Bearing (true) Bearing (mag) Slope Elevation
07 Localiser TRE 109.30 MHz 18 nm / 33 km 69.20° 66.00° - 51 ft / 16 m (AMSL)
07 Glidescope TRE 109.30 MHz 10 nm / 19 km 69.19° 65.99° 3.00° 56 ft / 17 m (AMSL)

Map

Weather


0- 5 10 15 20 25 30 35+ Temperature / ° C

Clouds and Precipitation
Forecast for 2018-05-26 18:00 UTC. Updated 3 hours ago

Ground ~20,000 ft ~40,000 ft Winds

METAR

LIPH 261950Z VRB01KT CAVOK 23/17 Q1019

TAF

TAF LIPH 261700Z 2618/2718 VRB05KT 9999 FEW040 TEMPO 2622/2706 4000 BR

Frequencies

Tower 124.15 MHz PADOVA INFO
Tower 118.70 MHz TWR
Approach 120.40 MHz APP
Tower 122.10 MHz TWR
Approach 121.15 MHz APP
Approach 122.10 MHz APP
Warning: Do not use this data for real-world aviation or navigation. No guarantee of current accuracy is given.